Terminal Aerodrome Forecast
Issued by NWS

Home | Current Version | Previous Version | Graphics & Text | Print | Product List | Glossary On
Versions: 1 2 3 4 5 6 7 8 9 10 11 12 13 14 15 16 17 18 19
000
FTUS43 KICT 290024 AAA
TAFHUT
TAF AMD
KHUT 290024Z 2900/2924 13012KT P6SM SCT070 SCT200
     FM290030 VRB45G55KT 2SM +TSRA OVC025CB
     FM290100 VRB25KT P6SM VCTS BKN060CB
     FM290200 05012KT P6SM SCT050 BKN100
     FM290900 01007KT P6SM SCT060
     FM291200 01006KT P6SM FEW250=

USA.gov is the U.S. government's official web portal to all federal, state and local government web resources and services.